Terminal Aerodrome Forecast
Issued by NWS Tampa Bay Area, FL

Home | Current Version | Previous Version | Text Only | Print | Product List | Glossary On
Versions: 1 2 3 4 5 6 7 8 9 10 11 12 13 14
000
FTUS42 KTBW 242330
TAFSRQ
TAF
KSRQ 242330Z 2500/2524 29018G23KT P6SM SCT045
     FM250200 30008KT P6SM SCT030
     FM251400 28012KT P6SM SCT035 SCT250=

USA.gov is the U.S. government's official web portal to all federal, state and local government web resources and services.